Latest Weather Observations for West Wyalong

IDN60801

Issued at 2:02 pm EST Saturday 23 May 2015 (issued every 30 minutes, with the page automatically refreshed every 10 minutes)

About weather observations | Map of weather stations | Latest weather observations for NSW | Other Formats
Station Details ID: 050017 Name: WEST WYALONG AIRPORT AWS Lat: -33.94 Lon: 147.20 Height: 257.0 m
Data from the previous 72 hours. | See also: Recent months for locations in New South Wales
Date/Time
EST
Temp
°C
App
Temp
°C
Dew
Point
Rel
Hum
%
Delta-T
°C
Wind Press
QNH
hPa
Press
MSL
hPa
Rain
since 9 am
mm
Dir
 
Spd
km/h
Gust
km/h
Spd
kts
Gust
kts
23/02:00pm 17.3 14.5 3.2 39 6.5 SW 7 13 4 7 1029.3 1029.3 0.0
23/01:30pm 17.0 14.5 3.7 41 6.2 N 6 15 3 8 1029.6 1029.6 0.0
23/01:00pm 16.5 13.4 3.6 42 6.0 W 9 15 5 8 1029.9 1029.9 0.0
23/12:30pm 16.0 13.8 3.4 43 5.9 W 4 11 2 6 1030.1 1030.1 0.0
23/12:00pm 15.8 13.3 3.6 44 5.6 NNW 6 11 3 6 1030.5 1030.5 0.0
23/11:30am 14.9 11.9 4.0 48 5.1 NNW 9 13 5 7 1031.0 1031.1 0.0
23/11:00am 14.5 11.4 3.6 48 5.0 NE 9 13 5 7 1031.2 1031.3 0.0
23/10:30am 13.6 10.9 3.9 52 4.5 NE 7 11 4 6 1031.5 1031.6 0.0
23/10:00am 12.0 9.3 3.8 57 3.7 ESE 7 11 4 6 1031.4 1031.5 0.0
23/09:30am 11.4 8.0 4.2 61 3.2 ESE 11 15 6 8 1031.2 1031.3 0.0
23/09:00am 9.9 6.1 3.9 66 2.7 ESE 13 19 7 10 1031.1 1031.2 0.0
23/08:30am 8.4 5.5 4.8 78 1.6 ESE 9 11 5 6 1030.9 1031.0 0.0
23/08:00am 5.3 4.2 5.3 100 0.0 CALM 0 0 0 0 1030.6 1030.6 0.0
23/07:30am 3.4 2.0 3.3 99 0.0 CALM 0 0 0 0 1030.3 1030.3 0.0
23/07:00am 1.7 0.0 1.6 99 0.0 CALM 0 6 0 3 1030.0 1030.0 0.0
23/06:30am 0.8 -1.1 0.7 99 0.0 CALM 0 0 0 0 1029.8 1029.8 0.0
23/06:00am 1.3 -1.0 0.7 96 0.2 WSW 2 6 1 3 1029.3 1029.3 0.0
23/05:30am 1.9 -0.9 1.8 99 0.0 WSW 6 7 3 4 1029.1 1029.2 0.0
23/05:00am 2.1 0.4 1.8 98 0.1 CALM 0 0 0 0 1028.8 1028.9 0.0
23/04:30am 1.6 -1.4 1.0 96 0.2 S 6 7 3 4 1028.6 1028.7 0.0
23/04:00am 2.0 -0.9 1.6 97 0.2 WSW 6 6 3 3 1028.4 1028.5 0.0
23/03:30am 2.0 -0.9 1.6 97 0.2 WSW 6 6 3 3 1028.4 1028.5 0.0
23/03:00am 2.2 -0.7 1.3 94 0.3 WSW 6 6 3 3 1028.3 1028.4 0.0
23/02:30am 2.4 -0.1 1.7 95 0.3 WSW 4 6 2 3 1028.3 1028.4 0.0
23/02:00am 2.8 -0.1 1.6 92 0.5 WSW 6 7 3 4 1028.5 1028.6 0.0
23/01:30am 2.8 1.0 1.5 91 0.5 CALM 0 6 0 3 1028.5 1028.6 0.0
23/01:00am 3.6 0.9 2.6 93 0.4 WSW 6 7 3 4 1028.6 1028.7 0.0
23/12:30am 3.2 1.5 1.7 90 0.6 CALM 0 0 0 0 1028.5 1028.6 0.0
23/12:00am 3.6 1.9 2.0 89 0.6 CALM 0 0 0 0 1028.4 1028.5 0.0
 
Date/Time
EST
Temp
°C
App
Temp
°C
Dew
Point
Rel
Hum
%
Delta-T
°C
Wind Press
QNH
hPa
Press
MSL
hPa
Rain
since 9 am
mm
Dir
 
Spd
km/h
Gust
km/h
Spd
kts
Gust
kts
22/11:30pm 4.3 2.3 2.3 87 0.8 WSW 2 6 1 3 1028.4 1028.5 0.0
22/11:00pm 4.5 2.9 2.5 87 0.8 CALM 0 0 0 0 1028.2 1028.3 0.0
22/10:30pm 4.9 2.6 2.8 86 0.9 WSW 4 9 2 5 1028.0 1028.1 0.0
22/10:00pm 5.8 3.9 3.1 83 1.1 WSW 2 6 1 3 1027.9 1028.0 0.0
22/09:30pm 6.3 3.6 2.8 78 1.5 WSW 6 7 3 4 1027.7 1027.8 0.0
22/09:00pm 7.1 4.6 3.5 78 1.5 WSW 6 9 3 5 1027.5 1027.6 0.0
22/08:30pm 8.3 6.6 3.9 74 1.9 NE 2 6 1 3 1027.3 1027.3 0.0
22/08:00pm 7.6 4.8 2.9 72 2.0 WSW 7 7 4 4 1026.8 1026.8 0.0
22/07:30pm 9.3 6.6 3.9 69 2.4 SW 7 9 4 5 1026.7 1026.7 0.0
22/07:00pm 10.0 7.3 3.7 65 2.8 SW 7 7 4 4 1026.4 1026.4 0.0
22/06:30pm 11.0 8.0 4.2 63 3.1 SW 9 11 5 6 1026.1 1026.1 0.0
22/06:00pm 11.7 8.7 4.0 59 3.5 SSW 9 11 5 6 1025.6 1025.6 0.0
22/05:30pm 14.3 10.5 4.0 50 4.8 SSW 13 17 7 9 1025.3 1025.3 0.0
22/05:00pm 16.2 12.0 3.9 44 5.8 S 15 19 8 10 1024.9 1025.0 0.0
22/04:30pm 17.4 12.7 3.3 39 6.6 S 17 24 9 13 1024.5 1024.6 0.0
22/04:00pm 18.3 13.6 3.4 37 7.0 S 17 24 9 13 1024.3 1024.4 0.0
22/03:30pm 18.5 13.9 3.9 38 7.0 S 17 24 9 13 1023.8 1023.8 0.0
22/03:00pm 18.6 14.6 4.8 40 6.7 S 15 20 8 11 1023.7 1023.7 0.0
22/02:30pm 18.9 14.8 6.1 43 6.4 SSE 17 26 9 14 1023.7 1023.7 0.0
22/02:00pm 18.7 13.8 5.2 41 6.6 SSE 20 28 11 15 1023.5 1023.5 0.0
22/01:30pm 18.8 13.6 5.3 41 6.7 SSE 22 32 12 17 1023.4 1023.4 0.0
22/01:00pm 18.5 13.7 5.7 43 6.3 SSE 20 33 11 18 1023.3 1023.3 0.0
22/12:30pm 17.7 12.9 7.2 50 5.3 S 22 30 12 16 1023.3 1023.3 0.0
22/12:00pm 17.9 13.7 8.2 53 5.0 SSE 20 32 11 17 1023.5 1023.5 0.0
22/11:30am 16.9 12.9 8.3 57 4.4 SSE 19 26 10 14 1023.7 1023.7 0.0
22/11:00am 16.0 11.9 8.7 62 3.8 S 20 26 11 14 1024.0 1024.0 0.0
22/10:30am 15.3 11.7 8.3 63 3.6 SSW 17 26 9 14 1023.9 1023.9 0.0
22/10:00am 14.0 11.0 9.2 73 2.5 SSW 15 20 8 11 1023.9 1023.9 0.0
22/09:30am 12.3 9.4 9.7 84 1.3 SW 15 20 8 11 1023.5 1023.5 0.0
22/09:00am 10.5 8.0 9.7 95 0.4 SW 13 19 7 10 1023.3 1023.3 0.2
22/08:30am 9.5 6.6 9.5 100 0.0 SW 15 20 8 11 1023.0 1023.0 0.2
22/08:00am 8.3 5.4 8.3 100 0.0 SW 13 17 7 9 1022.6 1022.6 0.2
22/07:30am 8.1 5.2 8.1 100 0.0 SW 13 19 7 10 1022.1 1022.1 0.2
22/07:00am 8.0 5.1 8.0 100 0.0 SW 13 15 7 8 1021.9 1021.9 0.0
22/06:30am 7.9 4.6 7.9 100 0.0 SW 15 20 8 11 1021.7 1021.7 0.0
22/06:00am 7.9 4.6 7.9 100 0.0 SW 15 19 8 10 1021.4 1021.4 0.0
22/05:30am 8.4 5.2 8.4 100 0.0 SW 15 19 8 10 1021.3 1021.3 0.0
22/05:00am 8.2 4.6 8.2 100 0.0 WSW 17 22 9 12 1020.9 1021.0 0.0
22/04:30am 7.6 3.8 7.6 100 0.0 SW 17 20 9 11 1020.9 1021.0 0.0
22/04:00am 8.0 4.7 8.0 100 0.0 WSW 15 19 8 10 1020.3 1020.3 0.0
22/03:30am 7.9 4.6 7.9 100 0.0 SW 15 19 8 10 1020.4 1020.4 0.0
22/03:00am 7.9 5.3 7.9 100 0.0 SW 11 17 6 9 1020.3 1020.3 0.0
22/02:30am 8.1 5.2 8.1 100 0.0 WSW 13 17 7 9 1020.3 1020.3 0.0
22/02:00am 7.9 5.3 7.9 100 0.0 SW 11 13 6 7 1020.3 1020.3 0.0
22/01:30am 8.4 5.9 8.4 100 0.0 WSW 11 13 6 7 1020.3 1020.3 0.0
22/01:00am 8.5 5.7 8.5 100 0.0 SW 13 13 7 7 1020.3 1020.3 0.0
22/12:30am 8.7 5.9 8.7 100 0.0 SW 13 15 7 8 1020.5 1020.5 0.0
22/12:00am 8.7 6.3 8.7 100 0.0 WSW 11 15 6 8 1020.6 1020.6 0.0
 
Date/Time
EST
Temp
°C
App
Temp
°C
Dew
Point
Rel
Hum
%
Delta-T
°C
Wind Press
QNH
hPa
Press
MSL
hPa
Rain
since 9 am
mm
Dir
 
Spd
km/h
Gust
km/h
Spd
kts
Gust
kts
21/11:30pm 8.5 6.1 8.5 100 0.0 SW 11 15 6 8 1020.7 1020.7 0.0
21/11:00pm 8.7 5.6 8.7 100 0.0 WSW 15 17 8 9 1020.6 1020.6 0.0
21/10:30pm 8.6 6.2 8.5 99 0.0 WSW 11 13 6 7 1020.6 1020.6 0.0
21/10:00pm 8.8 6.4 8.7 99 0.0 WSW 11 13 6 7 1020.6 1020.6 0.0
21/09:30pm 9.1 6.3 8.6 97 0.2 WSW 13 17 7 9 1020.3 1020.3 0.0
21/09:00pm 9.3 6.4 8.2 93 0.5 SW 13 15 7 8 1020.1 1020.1 0.0
21/08:30pm 9.8 6.8 7.7 87 1.0 SW 13 15 7 8 1020.4 1020.4 0.0
21/08:00pm 10.2 7.6 7.8 85 1.2 WSW 11 15 6 8 1020.2 1020.2 0.0
21/07:30pm 10.3 7.6 7.4 82 1.4 WSW 11 13 6 7 1020.4 1020.4 0.0
21/07:00pm 10.3 7.9 6.8 79 1.7 WSW 9 9 5 5 1020.3 1020.3 0.0
21/06:30pm 11.1 8.4 7.2 77 1.9 SW 11 13 6 7 1019.7 1019.7 0.0
21/06:00pm 12.1 9.8 7.6 74 2.2 SSW 9 11 5 6 1019.6 1019.6 0.0
21/05:30pm 12.6 9.9 7.5 71 2.5 SSW 11 15 6 8 1019.2 1019.2 0.0
21/05:00pm 13.7 10.8 6.6 62 3.5 SSW 11 15 6 8 1019.0 1019.0 0.0
21/04:30pm 14.8 11.1 6.4 57 4.1 SSW 15 20 8 11 1018.9 1018.9 0.0
21/04:00pm 14.9 10.8 6.0 55 4.3 S 17 24 9 13 1018.9 1018.9 0.0
21/03:30pm 15.3 11.3 6.8 57 4.2 SSW 17 24 9 13 1018.8 1018.8 0.0
21/03:00pm 16.3 12.7 5.0 47 5.4 S 13 17 7 9 1018.7 1018.7 0.0
21/02:30pm 17.3 14.9 4.3 42 6.2 WSW 6 11 3 6 1018.6 1018.6 0.0
21/02:00pm 15.8 13.2 6.3 53 4.7 SW 9 13 5 7 1018.9 1018.9 0.0
21/01:30pm 15.8 13.7 6.8 55 4.5 W 7 15 4 8 1019.0 1019.0 0.0
21/01:00pm 15.4 13.4 6.9 57 4.2 SW 7 13 4 7 1019.3 1019.3 0.0
21/12:30pm 16.3 14.1 8.0 58 4.2 SW 9 15 5 8 1019.7 1019.7 0.0
21/12:00pm 15.1 13.1 8.6 65 3.3 SSW 9 11 5 6 1020.1 1020.1 0.0
21/11:30am 14.4 12.6 9.6 73 2.5 WSW 9 13 5 7 1020.5 1020.5 0.0
21/11:00am 13.4 10.9 9.8 79 1.9 WSW 13 17 7 9 1020.8 1020.8 0.0
21/10:30am 14.0 12.3 8.2 68 2.9 S 7 11 4 6 1020.8 1020.8 0.0
21/10:00am 12.8 11.7 8.3 74 2.3 S 4 7 2 4 1020.7 1020.7 0.0
21/09:30am 11.3 10.2 9.9 91 0.7 SW 6 9 3 5 1020.7 1020.7 0.0
21/09:00am 10.0 8.7 10.0 100 0.0 WSW 7 9 4 5 1020.6 1020.6 0.0
21/08:30am 9.4 8.2 9.4 100 0.0 S 6 9 3 5 1020.4 1020.4 0.0
21/08:00am 6.8 5.3 6.8 100 0.0 WSW 4 9 2 5 1020.2 1020.2 0.0
21/07:30am 5.8 4.8 5.8 100 0.0 CALM 0 0 0 0 1019.9 1019.9 0.0
21/07:00am 5.7 3.6 5.7 100 0.0 W 6 7 3 4 1019.9 1019.9 0.0
21/06:30am 5.4 4.4 5.4 100 0.0 CALM 0 0 0 0 1019.5 1019.5 0.0
21/06:00am 5.7 4.7 5.7 100 0.0 CALM 0 0 0 0 1019.2 1019.2 0.0
21/05:30am 5.5 4.5 5.5 100 0.0 CALM 0 0 0 0 1019.2 1019.2 0.0
21/05:00am 4.9 2.4 4.9 100 0.0 W 7 9 4 5 1019.1 1019.1 0.0
21/04:30am 5.3 3.1 5.3 100 0.0 W 6 7 3 4 1019.0 1019.0 0.0
21/04:00am 5.2 4.1 5.2 100 0.0 CALM 0 0 0 0 1019.0 1019.0 0.0
21/03:30am 5.5 4.1 5.5 100 0.0 WNW 2 7 1 4 1018.8 1018.8 0.0
21/03:00am 5.5 4.5 5.4 99 0.0 CALM 0 0 0 0 1018.8 1018.8 0.0
21/02:30am 6.3 5.4 6.2 99 0.0 CALM 0 0 0 0 1018.9 1018.9 0.0
21/02:00am 6.9 6.2 6.9 100 0.0 CALM 0 0 0 0 1018.9 1018.9 0.0
21/01:30am 7.1 6.4 7.0 99 0.0 CALM 0 0 0 0 1019.2 1019.2 0.0
21/01:00am 7.9 7.4 7.8 99 0.0 CALM 0 0 0 0 1019.2 1019.2 0.0
21/12:30am 7.9 6.5 7.1 95 0.4 WNW 4 7 2 4 1019.0 1019.0 0.0
21/12:00am 8.5 6.8 7.6 94 0.4 W 6 7 3 4 1018.9 1018.9 0.0
 
Date/Time
EST
Temp
°C
App
Temp
°C
Dew
Point
Rel
Hum
%
Delta-T
°C
Wind Press
QNH
hPa
Press
MSL
hPa
Rain
since 9 am
mm
Dir
 
Spd
km/h
Gust
km/h
Spd
kts
Gust
kts
20/11:30pm 9.9 8.4 8.5 91 0.7 W 6 7 3 4 1019.1 1019.1 0.0
20/11:00pm 10.8 9.4 8.9 88 1.0 W 6 7 3 4 1019.1 1019.1 0.0
20/10:30pm 11.5 10.0 9.1 85 1.2 W 7 9 4 5 1019.0 1019.0 0.0
20/10:00pm 12.4 10.2 9.4 82 1.5 W 11 13 6 7 1019.0 1019.0 0.0
20/09:30pm 12.6 10.4 9.4 81 1.6 W 11 13 6 7 1018.9 1018.9 0.0
20/09:00pm 13.2 10.6 9.5 78 1.9 WSW 13 17 7 9 1018.7 1018.7 0.0
20/08:30pm 13.6 10.4 9.8 78 2.0 WSW 17 20 9 11 1018.6 1018.6 0.0
20/08:00pm 13.7 11.0 10.3 80 1.8 WSW 15 19 8 10 1018.5 1018.5 0.0
20/07:30pm 14.1 12.3 10.7 80 1.8 WSW 11 13 6 7 1018.2 1018.2 0.0
20/07:00pm 14.6 12.3 10.6 77 2.1 WSW 13 15 7 8 1017.8 1017.8 0.0
20/06:30pm 14.9 13.1 10.9 77 2.1 SW 11 15 6 8 1017.5 1017.4 0.0
20/06:00pm 15.4 12.6 11.4 77 2.2 SW 17 20 9 11 1017.1 1017.0 0.0
20/05:30pm 15.9 12.8 11.5 75 2.4 WSW 19 24 10 13 1016.8 1016.8 0.0
20/05:00pm 16.9 13.5 10.7 67 3.4 WSW 19 24 10 13 1016.3 1016.3 0.0
20/04:30pm 17.3 15.0 11.6 69 3.1 WSW 15 20 8 11 1015.9 1015.9 0.0
20/04:00pm 17.6 13.9 11.6 68 3.3 WSW 22 28 12 15 1015.4 1015.4 0.0
20/03:30pm 18.6 15.2 11.2 62 4.1 WSW 20 28 11 15 1015.3 1015.3 0.0
20/03:00pm 18.9 14.7 11.2 61 4.2 WSW 24 32 13 17 1015.1 1015.1 0.0
20/02:30pm 19.3 16.4 12.3 64 4.0 SW 19 26 10 14 1015.1 1015.1 0.0

Other Formats:

Comma delimited format used in spreadsheet applications
http://www.bom.gov.au/fwo/IDN60801/IDN60801.95709.axf

JavaScript Object Notation format (JSON) in row-major order
http://www.bom.gov.au/fwo/IDN60801/IDN60801.95709.json